コロンボ の空港の天気 - METARとTAF

バンダラナイケ国際空港 ( VCBI / CMB ) - スリランカ コロンボ
飛行場実況気象(Metar)
観測時間12/06 16:40 IST (12/06 11:10 UTC)
風向・風速北 2m/s
視程8000m
天気現象
全天の4割程度の雲 雲底高度 490m
全天の8割程度の雲 雲底高度 2440m
気温28℃
湿度79%
気圧1007hPa
METARVCBI 061110Z 36003KT 320V050 8000 SCT016 BKN080 28/24 Q1007 NOSIG
過去の天気等 Google飛行場航空写真 Wunderground天気予報

過去48時間のMETAR

飛行場予報(TAF)
発表時間: 12/06 16:30 IST (12/06 11:00 UTC)
予報対象時間: 6日17時 IST ~ 7日23時 IST
風向・風速北北東 4m/s
視程9000m
全天の4割程度の雲 雲底高度 490m
TAF VCBI 061100Z 0612/0718 02008KT 9000 SCT016 TX30/0707Z TN23/0700Z